sensor_id;sensor_type;location;lat;lon;timestamp;pressure;altitude;pressure_sealevel;temperature;humidity
77366;BME280;66430;50.182;11.704;2024-03-22T00:01:25;95230.42;;;9.17;37.42
77366;BME280;66430;50.182;11.704;2024-03-22T00:03:51;95221.65;;;8.71;37.74
77366;BME280;66430;50.182;11.704;2024-03-22T00:06:17;95219.70;;;9.01;37.78
77366;BME280;66430;50.182;11.704;2024-03-22T00:08:41;95211.05;;;8.71;37.67
77366;BME280;66430;50.182;11.704;2024-03-22T00:11:07;95213.70;;;9.15;37.88
77366;BME280;66430;50.182;11.704;2024-03-22T00:13:33;95212.72;;;9.14;37.41
77366;BME280;66430;50.182;11.704;2024-03-22T00:15:58;95210.95;;;8.93;37.52
77366;BME280;66430;50.182;11.704;2024-03-22T00:18:24;95206.09;;;8.94;37.58
77366;BME280;66430;50.182;11.704;2024-03-22T00:20:49;95200.52;;;9.21;37.51
77366;BME280;66430;50.182;11.704;2024-03-22T00:23:14;95198.24;;;9.02;37.81
77366;BME280;66430;50.182;11.704;2024-03-22T00:25:40;95194.34;;;8.79;37.78
77366;BME280;66430;50.182;11.704;2024-03-22T00:28:05;95188.90;;;8.99;38.02
77366;BME280;66430;50.182;11.704;2024-03-22T00:30:31;95189.33;;;8.76;37.88
77366;BME280;66430;50.182;11.704;2024-03-22T00:32:57;95191.42;;;8.74;37.90
77366;BME280;66430;50.182;11.704;2024-03-22T00:35:23;95188.43;;;8.96;37.81
77366;BME280;66430;50.182;11.704;2024-03-22T00:37:47;95186.98;;;8.72;37.63
77366;BME280;66430;50.182;11.704;2024-03-22T00:40:13;95184.75;;;8.93;37.80
77366;BME280;66430;50.182;11.704;2024-03-22T00:42:38;95187.12;;;8.65;38.11
77366;BME280;66430;50.182;11.704;2024-03-22T00:45:04;95184.93;;;8.67;38.42
77366;BME280;66430;50.182;11.704;2024-03-22T00:47:30;95186.86;;;8.92;38.36
77366;BME280;66430;50.182;11.704;2024-03-22T00:49:55;95181.99;;;8.72;38.34
77366;BME280;66430;50.182;11.704;2024-03-22T00:52:21;95179.94;;;9.17;38.10
77366;BME280;66430;50.182;11.704;2024-03-22T00:54:46;95177.71;;;8.39;37.25
77366;BME280;66430;50.182;11.704;2024-03-22T00:57:11;95173.37;;;8.72;37.54
77366;BME280;66430;50.182;11.704;2024-03-22T00:59:38;95174.39;;;8.61;36.98
77366;BME280;66430;50.182;11.704;2024-03-22T01:02:08;95179.52;;;8.43;37.20
77366;BME280;66430;50.182;11.704;2024-03-22T01:04:29;95179.61;;;8.56;37.33
77366;BME280;66430;50.182;11.704;2024-03-22T01:06:54;95177.58;;;8.23;37.15
77366;BME280;66430;50.182;11.704;2024-03-22T01:09:21;95177.71;;;8.23;37.84
77366;BME280;66430;50.182;11.704;2024-03-22T01:11:46;95177.57;;;8.09;37.71
77366;BME280;66430;50.182;11.704;2024-03-22T01:14:11;95178.93;;;7.87;38.71
77366;BME280;66430;50.182;11.704;2024-03-22T01:16:37;95174.66;;;7.97;38.29
77366;BME280;66430;50.182;11.704;2024-03-22T01:19:02;95168.42;;;7.94;38.29
77366;BME280;66430;50.182;11.704;2024-03-22T01:21:28;95164.41;;;8.16;38.62
77366;BME280;66430;50.182;11.704;2024-03-22T01:23:53;95165.46;;;7.95;38.93
77366;BME280;66430;50.182;11.704;2024-03-22T01:26:19;95162.66;;;8.24;38.90
77366;BME280;66430;50.182;11.704;2024-03-22T01:28:44;95158.96;;;8.04;39.02
77366;BME280;66430;50.182;11.704;2024-03-22T01:31:10;95155.45;;;8.10;39.13
77366;BME280;66430;50.182;11.704;2024-03-22T01:33:35;95151.54;;;8.14;38.44
77366;BME280;66430;50.182;11.704;2024-03-22T01:36:01;95149.21;;;8.16;37.94
77366;BME280;66430;50.182;11.704;2024-03-22T01:38:26;95144.53;;;8.18;38.22
77366;BME280;66430;50.182;11.704;2024-03-22T01:40:52;95140.30;;;8.15;37.90
77366;BME280;66430;50.182;11.704;2024-03-22T01:43:17;95137.29;;;8.40;38.16
77366;BME280;66430;50.182;11.704;2024-03-22T01:45:43;95133.63;;;8.18;38.12
77366;BME280;66430;50.182;11.704;2024-03-22T01:48:09;95130.52;;;8.18;38.37
77366;BME280;66430;50.182;11.704;2024-03-22T01:50:34;95130.53;;;8.17;38.09
77366;BME280;66430;50.182;11.704;2024-03-22T01:53:01;95132.29;;;8.15;38.18
77366;BME280;66430;50.182;11.704;2024-03-22T01:55:25;95131.68;;;8.15;37.93
77366;BME280;66430;50.182;11.704;2024-03-22T01:57:52;95129.99;;;8.06;38.27
77366;BME280;66430;50.182;11.704;2024-03-22T02:00:16;95124.97;;;7.85;38.26
77366;BME280;66430;50.182;11.704;2024-03-22T02:02:43;95121.83;;;7.90;38.55
77366;BME280;66430;50.182;11.704;2024-03-22T02:05:13;95122.15;;;7.95;38.69
77366;BME280;66430;50.182;11.704;2024-03-22T02:07:33;95115.43;;;8.43;38.74
77366;BME280;66430;50.182;11.704;2024-03-22T02:09:58;95108.42;;;7.98;39.54
77366;BME280;66430;50.182;11.704;2024-03-22T02:12:23;95100.50;;;7.65;40.35
77366;BME280;66430;50.182;11.704;2024-03-22T02:14:50;95097.90;;;7.80;41.09
77366;BME280;66430;50.182;11.704;2024-03-22T02:17:15;95097.18;;;7.53;41.67
77366;BME280;66430;50.182;11.704;2024-03-22T02:19:40;95094.20;;;8.01;41.39
77366;BME280;66430;50.182;11.704;2024-03-22T02:22:06;95094.28;;;7.94;41.65
77366;BME280;66430;50.182;11.704;2024-03-22T02:24:31;95090.53;;;7.69;41.83
77366;BME280;66430;50.182;11.704;2024-03-22T02:26:57;95090.82;;;8.25;41.23
77366;BME280;66430;50.182;11.704;2024-03-22T02:29:22;95087.80;;;7.71;42.15
77366;BME280;66430;50.182;11.704;2024-03-22T02:31:48;95092.66;;;7.99;41.76
77366;BME280;66430;50.182;11.704;2024-03-22T02:34:13;95095.29;;;7.58;42.24
77366;BME280;66430;50.182;11.704;2024-03-22T02:36:39;95092.43;;;7.95;41.65
77366;BME280;66430;50.182;11.704;2024-03-22T02:39:04;95092.28;;;8.26;41.30
77366;BME280;66430;50.182;11.704;2024-03-22T02:41:29;95087.08;;;8.26;41.32
77366;BME280;66430;50.182;11.704;2024-03-22T02:43:55;95085.21;;;8.35;41.30
77366;BME280;66430;50.182;11.704;2024-03-22T02:46:21;95078.37;;;8.37;40.99
77366;BME280;66430;50.182;11.704;2024-03-22T02:48:46;95080.37;;;8.27;41.35
77366;BME280;66430;50.182;11.704;2024-03-22T02:51:11;95083.52;;;8.14;41.48
77366;BME280;66430;50.182;11.704;2024-03-22T02:53:37;95081.37;;;7.90;40.95
77366;BME280;66430;50.182;11.704;2024-03-22T02:56:04;95082.63;;;8.34;41.21
77366;BME280;66430;50.182;11.704;2024-03-22T02:58:28;95081.90;;;8.60;40.61
77366;BME280;66430;50.182;11.704;2024-03-22T03:00:54;95078.86;;;8.38;40.67
77366;BME280;66430;50.182;11.704;2024-03-22T03:03:19;95077.10;;;8.29;40.54
77366;BME280;66430;50.182;11.704;2024-03-22T03:05:44;95069.84;;;8.66;40.25
77366;BME280;66430;50.182;11.704;2024-03-22T03:08:11;95071.61;;;8.70;40.14
77366;BME280;66430;50.182;11.704;2024-03-22T03:10:35;95073.86;;;8.70;40.02
77366;BME280;66430;50.182;11.704;2024-03-22T03:13:02;95071.52;;;8.47;40.17
77366;BME280;66430;50.182;11.704;2024-03-22T03:15:26;95067.53;;;8.48;39.78
77366;BME280;66430;50.182;11.704;2024-03-22T03:17:52;95064.96;;;8.44;40.00
77366;BME280;66430;50.182;11.704;2024-03-22T03:20:18;95067.54;;;7.83;40.48
77366;BME280;66430;50.182;11.704;2024-03-22T03:22:42;95064.10;;;8.96;40.00
77366;BME280;66430;50.182;11.704;2024-03-22T03:25:08;95062.27;;;8.54;39.72
77366;BME280;66430;50.182;11.704;2024-03-22T03:27:34;95056.17;;;8.79;39.72
77366;BME280;66430;50.182;11.704;2024-03-22T03:29:59;95054.55;;;8.70;39.94
77366;BME280;66430;50.182;11.704;2024-03-22T03:32:25;95052.09;;;7.51;41.99
77366;BME280;66430;50.182;11.704;2024-03-22T03:34:50;95057.21;;;8.22;41.05
77366;BME280;66430;50.182;11.704;2024-03-22T03:37:15;95052.75;;;8.64;40.36
77366;BME280;66430;50.182;11.704;2024-03-22T03:39:41;95053.07;;;7.87;41.12
77366;BME280;66430;50.182;11.704;2024-03-22T03:42:06;95054.07;;;7.94;40.88
77366;BME280;66430;50.182;11.704;2024-03-22T03:44:32;95057.67;;;7.87;41.61
77366;BME280;66430;50.182;11.704;2024-03-22T03:46:58;95056.68;;;7.84;41.62
77366;BME280;66430;50.182;11.704;2024-03-22T03:49:23;95052.66;;;8.17;41.02
77366;BME280;66430;50.182;11.704;2024-03-22T03:51:48;95049.50;;;8.44;41.01
77366;BME280;66430;50.182;11.704;2024-03-22T03:54:18;95048.97;;;8.39;41.24
77366;BME280;66430;50.182;11.704;2024-03-22T03:56:39;95048.12;;;8.52;40.45
77366;BME280;66430;50.182;11.704;2024-03-22T03:59:04;95046.63;;;8.24;40.74
77366;BME280;66430;50.182;11.704;2024-03-22T04:01:29;95046.52;;;8.16;40.68
77366;BME280;66430;50.182;11.704;2024-03-22T04:03:55;95051.06;;;8.64;40.31
77366;BME280;66430;50.182;11.704;2024-03-22T04:06:20;95056.23;;;8.49;40.67
77366;BME280;66430;50.182;11.704;2024-03-22T04:08:46;95056.46;;;8.34;40.83
77366;BME280;66430;50.182;11.704;2024-03-22T04:11:12;95048.32;;;8.36;40.19
77366;BME280;66430;50.182;11.704;2024-03-22T04:13:37;95043.31;;;8.67;39.94
77366;BME280;66430;50.182;11.704;2024-03-22T04:16:03;95042.68;;;8.59;39.96
77366;BME280;66430;50.182;11.704;2024-03-22T04:18:28;95040.51;;;8.36;39.86
77366;BME280;66430;50.182;11.704;2024-03-22T04:20:54;95039.18;;;8.62;39.90
77366;BME280;66430;50.182;11.704;2024-03-22T04:23:19;95038.28;;;7.59;40.84
77366;BME280;66430;50.182;11.704;2024-03-22T04:25:53;95032.03;;;7.93;40.45
77366;BME280;66430;50.182;11.704;2024-03-22T04:28:10;95029.73;;;8.40;40.36
77366;BME280;66430;50.182;11.704;2024-03-22T04:30:36;95030.97;;;8.27;41.13
77366;BME280;66430;50.182;11.704;2024-03-22T04:33:01;95026.12;;;8.38;40.46
77366;BME280;66430;50.182;11.704;2024-03-22T04:35:27;95029.75;;;8.21;40.81
77366;BME280;66430;50.182;11.704;2024-03-22T04:37:52;95031.77;;;8.37;40.64
77366;BME280;66430;50.182;11.704;2024-03-22T04:40:17;95033.59;;;8.29;40.87
77366;BME280;66430;50.182;11.704;2024-03-22T04:42:43;95031.77;;;8.55;40.55
77366;BME280;66430;50.182;11.704;2024-03-22T04:45:08;95030.81;;;8.15;40.72
77366;BME280;66430;50.182;11.704;2024-03-22T04:47:33;95027.82;;;8.65;40.37
77366;BME280;66430;50.182;11.704;2024-03-22T04:49:59;95018.98;;;8.55;40.66
77366;BME280;66430;50.182;11.704;2024-03-22T04:52:24;95016.64;;;8.05;41.22
77366;BME280;66430;50.182;11.704;2024-03-22T04:54:49;95012.51;;;8.40;41.31
77366;BME280;66430;50.182;11.704;2024-03-22T04:57:15;95015.40;;;8.22;41.64
77366;BME280;66430;50.182;11.704;2024-03-22T04:59:40;95016.72;;;8.03;41.66
77366;BME280;66430;50.182;11.704;2024-03-22T05:02:06;95012.96;;;8.35;41.03
77366;BME280;66430;50.182;11.704;2024-03-22T05:04:31;95014.09;;;7.93;41.65
77366;BME280;66430;50.182;11.704;2024-03-22T05:06:57;95008.22;;;8.11;41.90
77366;BME280;66430;50.182;11.704;2024-03-22T05:09:22;95008.76;;;7.60;42.45
77366;BME280;66430;50.182;11.704;2024-03-22T05:11:48;95009.60;;;7.93;41.56
77366;BME280;66430;50.182;11.704;2024-03-22T05:14:13;95007.15;;;7.59;42.27
77366;BME280;66430;50.182;11.704;2024-03-22T05:16:39;95001.82;;;8.06;41.71
77366;BME280;66430;50.182;11.704;2024-03-22T05:19:09;95003.17;;;7.47;42.84
77366;BME280;66430;50.182;11.704;2024-03-22T05:21:30;94999.36;;;7.16;43.72
77366;BME280;66430;50.182;11.704;2024-03-22T05:23:56;94999.09;;;7.76;42.41
77366;BME280;66430;50.182;11.704;2024-03-22T05:26:20;94999.62;;;7.69;42.48
77366;BME280;66430;50.182;11.704;2024-03-22T05:28:46;94990.87;;;7.31;43.55
77366;BME280;66430;50.182;11.704;2024-03-22T05:31:16;94993.81;;;7.28;43.57
77366;BME280;66430;50.182;11.704;2024-03-22T05:33:41;94993.00;;;7.70;42.81
77366;BME280;66430;50.182;11.704;2024-03-22T05:36:05;94991.05;;;7.52;43.75
77366;BME280;66430;50.182;11.704;2024-03-22T05:38:27;94987.48;;;7.27;43.62
77366;BME280;66430;50.182;11.704;2024-03-22T05:40:53;94990.15;;;7.23;43.75
77366;BME280;66430;50.182;11.704;2024-03-22T05:43:19;94983.10;;;8.01;43.19
77366;BME280;66430;50.182;11.704;2024-03-22T05:45:44;94984.57;;;7.45;43.65
77366;BME280;66430;50.182;11.704;2024-03-22T05:48:10;94985.27;;;7.54;43.56
77366;BME280;66430;50.182;11.704;2024-03-22T05:50:36;94984.15;;;7.91;42.72
77366;BME280;66430;50.182;11.704;2024-03-22T05:53:02;94984.46;;;7.88;42.90
77366;BME280;66430;50.182;11.704;2024-03-22T05:55:27;94990.09;;;8.48;42.29
77366;BME280;66430;50.182;11.704;2024-03-22T05:57:52;94988.07;;;8.50;42.87
77366;BME280;66430;50.182;11.704;2024-03-22T06:00:18;94983.31;;;8.50;42.24
77366;BME280;66430;50.182;11.704;2024-03-22T06:02:44;94986.36;;;8.33;42.69
77366;BME280;66430;50.182;11.704;2024-03-22T06:05:09;94987.79;;;7.93;42.43
77366;BME280;66430;50.182;11.704;2024-03-22T06:07:34;94988.82;;;8.36;42.53
77366;BME280;66430;50.182;11.704;2024-03-22T06:10:00;94981.88;;;8.61;41.88
77366;BME280;66430;50.182;11.704;2024-03-22T06:12:26;94977.95;;;9.16;41.63
77366;BME280;66430;50.182;11.704;2024-03-22T06:14:54;94972.82;;;8.21;42.21
77366;BME280;66430;50.182;11.704;2024-03-22T06:17:16;94969.85;;;8.59;42.01
77366;BME280;66430;50.182;11.704;2024-03-22T06:19:42;94964.26;;;8.52;42.44
77366;BME280;66430;50.182;11.704;2024-03-22T06:22:07;94959.78;;;8.78;42.60
77366;BME280;66430;50.182;11.704;2024-03-22T06:24:33;94958.51;;;7.90;43.52
77366;BME280;66430;50.182;11.704;2024-03-22T06:26:59;94955.83;;;7.52;43.94
77366;BME280;66430;50.182;11.704;2024-03-22T06:29:24;94955.82;;;8.51;43.08
77366;BME280;66430;50.182;11.704;2024-03-22T06:31:50;94960.57;;;8.30;43.15
77366;BME280;66430;50.182;11.704;2024-03-22T06:34:15;94960.07;;;9.01;42.36
77366;BME280;66430;50.182;11.704;2024-03-22T06:36:41;94943.06;;;8.84;42.45
77366;BME280;66430;50.182;11.704;2024-03-22T06:39:06;94948.10;;;8.22;43.21
77366;BME280;66430;50.182;11.704;2024-03-22T06:41:33;94949.13;;;9.19;42.13
77366;BME280;66430;50.182;11.704;2024-03-22T06:43:57;94952.13;;;8.70;42.74
77366;BME280;66430;50.182;11.704;2024-03-22T06:46:23;94948.86;;;9.08;42.40
77366;BME280;66430;50.182;11.704;2024-03-22T06:48:48;94951.66;;;9.02;42.19
77366;BME280;66430;50.182;11.704;2024-03-22T06:51:14;94946.63;;;9.09;42.56
77366;BME280;66430;50.182;11.704;2024-03-22T06:53:39;94944.65;;;8.98;42.79
77366;BME280;66430;50.182;11.704;2024-03-22T06:56:06;94944.12;;;9.39;42.35
77366;BME280;66430;50.182;11.704;2024-03-22T06:58:31;94944.44;;;9.31;42.49
77366;BME280;66430;50.182;11.704;2024-03-22T07:00:56;94943.28;;;9.31;42.35
77366;BME280;66430;50.182;11.704;2024-03-22T07:03:20;94942.99;;;9.31;42.13
77366;BME280;66430;50.182;11.704;2024-03-22T07:05:47;94943.81;;;9.50;41.85
77366;BME280;66430;50.182;11.704;2024-03-22T07:08:11;94945.99;;;9.90;41.83
77366;BME280;66430;50.182;11.704;2024-03-22T07:10:39;94948.40;;;9.80;41.44
77366;BME280;66430;50.182;11.704;2024-03-22T07:13:01;94947.39;;;9.67;41.68
77366;BME280;66430;50.182;11.704;2024-03-22T07:15:27;94947.96;;;9.19;42.63
77366;BME280;66430;50.182;11.704;2024-03-22T07:17:53;94944.36;;;9.65;41.81
77366;BME280;66430;50.182;11.704;2024-03-22T07:20:19;94950.58;;;9.95;42.12
77366;BME280;66430;50.182;11.704;2024-03-22T07:22:43;94950.65;;;9.80;42.23
77366;BME280;66430;50.182;11.704;2024-03-22T07:25:08;94951.22;;;9.98;41.97
77366;BME280;66430;50.182;11.704;2024-03-22T07:27:34;94954.26;;;10.49;41.55
77366;BME280;66430;50.182;11.704;2024-03-22T07:30:00;94958.99;;;10.88;41.72
77366;BME280;66430;50.182;11.704;2024-03-22T07:32:25;94954.68;;;10.66;42.23
77366;BME280;66430;50.182;11.704;2024-03-22T07:34:51;94950.93;;;10.74;42.65
77366;BME280;66430;50.182;11.704;2024-03-22T07:37:21;94948.78;;;11.07;42.42
77366;BME280;66430;50.182;11.704;2024-03-22T07:39:42;94953.84;;;10.76;42.38
77366;BME280;66430;50.182;11.704;2024-03-22T07:42:08;94953.67;;;11.02;42.05
77366;BME280;66430;50.182;11.704;2024-03-22T07:44:33;94954.03;;;10.75;42.15
77366;BME280;66430;50.182;11.704;2024-03-22T07:46:59;94957.46;;;11.45;41.65
77366;BME280;66430;50.182;11.704;2024-03-22T07:49:24;94957.07;;;11.00;41.76
77366;BME280;66430;50.182;11.704;2024-03-22T07:51:51;94961.24;;;11.47;41.49
77366;BME280;66430;50.182;11.704;2024-03-22T07:54:15;94963.77;;;10.82;41.91
77366;BME280;66430;50.182;11.704;2024-03-22T07:56:40;94958.05;;;11.42;41.29
77366;BME280;66430;50.182;11.704;2024-03-22T07:59:06;94958.57;;;11.70;41.14
77366;BME280;66430;50.182;11.704;2024-03-22T08:01:32;94954.77;;;11.73;40.86
77366;BME280;66430;50.182;11.704;2024-03-22T08:03:57;94955.94;;;11.86;40.15
77366;BME280;66430;50.182;11.704;2024-03-22T08:06:22;94957.26;;;11.92;40.32
77366;BME280;66430;50.182;11.704;2024-03-22T08:08:48;94957.55;;;11.13;40.43
77366;BME280;66430;50.182;11.704;2024-03-22T08:11:13;94955.88;;;11.61;40.17
77366;BME280;66430;50.182;11.704;2024-03-22T08:13:38;94954.07;;;11.69;40.03
77366;BME280;66430;50.182;11.704;2024-03-22T08:16:05;94953.59;;;11.58;39.82
77366;BME280;66430;50.182;11.704;2024-03-22T08:18:31;94956.82;;;11.66;39.70
77366;BME280;66430;50.182;11.704;2024-03-22T08:20:56;94951.01;;;11.43;40.03
77366;BME280;66430;50.182;11.704;2024-03-22T08:23:22;94947.99;;;11.88;39.73
77366;BME280;66430;50.182;11.704;2024-03-22T08:25:46;94951.48;;;11.89;39.84
77366;BME280;66430;50.182;11.704;2024-03-22T08:28:13;94951.91;;;12.13;39.97
77366;BME280;66430;50.182;11.704;2024-03-22T08:30:38;94944.60;;;11.97;39.62
77366;BME280;66430;50.182;11.704;2024-03-22T08:33:03;94944.51;;;12.29;39.86
77366;BME280;66430;50.182;11.704;2024-03-22T08:35:28;94942.25;;;12.22;40.07
77366;BME280;66430;50.182;11.704;2024-03-22T08:37:55;94938.93;;;12.56;39.52
77366;BME280;66430;50.182;11.704;2024-03-22T08:40:19;94938.78;;;12.47;39.26
77366;BME280;66430;50.182;11.704;2024-03-22T08:42:45;94934.18;;;12.38;39.96
77366;BME280;66430;50.182;11.704;2024-03-22T08:45:10;94931.62;;;12.25;39.15
77366;BME280;66430;50.182;11.704;2024-03-22T08:47:35;94930.18;;;12.26;40.42
77366;BME280;66430;50.182;11.704;2024-03-22T08:50:00;94926.88;;;12.56;39.12
77366;BME280;66430;50.182;11.704;2024-03-22T08:52:26;94923.87;;;12.30;39.56
77366;BME280;66430;50.182;11.704;2024-03-22T08:54:52;94919.58;;;12.48;38.71
77366;BME280;66430;50.182;11.704;2024-03-22T08:57:17;94912.28;;;13.01;38.34
77366;BME280;66430;50.182;11.704;2024-03-22T08:59:42;94910.96;;;12.81;38.20
77366;BME280;66430;50.182;11.704;2024-03-22T09:02:08;94905.34;;;12.91;38.42
77366;BME280;66430;50.182;11.704;2024-03-22T09:04:33;94899.99;;;12.99;38.50
77366;BME280;66430;50.182;11.704;2024-03-22T09:06:59;94901.56;;;12.83;38.33
77366;BME280;66430;50.182;11.704;2024-03-22T09:09:24;94903.27;;;12.72;38.41
77366;BME280;66430;50.182;11.704;2024-03-22T09:11:49;94900.96;;;13.02;38.32
77366;BME280;66430;50.182;11.704;2024-03-22T09:14:15;94897.86;;;12.93;38.04
77366;BME280;66430;50.182;11.704;2024-03-22T09:16:42;94896.15;;;12.66;38.46
77366;BME280;66430;50.182;11.704;2024-03-22T09:19:05;94898.14;;;13.31;37.83
77366;BME280;66430;50.182;11.704;2024-03-22T09:21:31;94899.57;;;12.71;38.43
77366;BME280;66430;50.182;11.704;2024-03-22T09:23:57;94897.72;;;13.02;38.18
77366;BME280;66430;50.182;11.704;2024-03-22T09:26:22;94897.73;;;13.26;37.67
77366;BME280;66430;50.182;11.704;2024-03-22T09:28:49;94892.83;;;13.34;37.43
77366;BME280;66430;50.182;11.704;2024-03-22T09:31:13;94889.73;;;12.81;38.74
77366;BME280;66430;50.182;11.704;2024-03-22T09:33:39;94890.39;;;13.15;38.23
77366;BME280;66430;50.182;11.704;2024-03-22T09:36:04;94889.56;;;13.15;38.83
77366;BME280;66430;50.182;11.704;2024-03-22T09:38:31;94893.31;;;13.20;38.32
77366;BME280;66430;50.182;11.704;2024-03-22T09:40:55;94894.94;;;13.30;38.27
77366;BME280;66430;50.182;11.704;2024-03-22T09:43:21;94893.80;;;13.62;37.82
77366;BME280;66430;50.182;11.704;2024-03-22T09:45:46;94886.40;;;13.38;37.82
77366;BME280;66430;50.182;11.704;2024-03-22T09:48:13;94882.31;;;14.20;37.88
77366;BME280;66430;50.182;11.704;2024-03-22T09:50:37;94877.58;;;13.91;37.83
77366;BME280;66430;50.182;11.704;2024-03-22T09:53:02;94870.02;;;14.08;37.47
77366;BME280;66430;50.182;11.704;2024-03-22T09:55:27;94865.61;;;14.04;37.49
77366;BME280;66430;50.182;11.704;2024-03-22T09:57:52;94863.19;;;14.33;37.89
77366;BME280;66430;50.182;11.704;2024-03-22T10:00:20;94863.14;;;14.56;38.09
77366;BME280;66430;50.182;11.704;2024-03-22T10:02:43;94860.62;;;14.43;38.34
77366;BME280;66430;50.182;11.704;2024-03-22T10:05:09;94860.59;;;14.37;37.22
77366;BME280;66430;50.182;11.704;2024-03-22T10:07:34;94857.17;;;14.51;37.10
77366;BME280;66430;50.182;11.704;2024-03-22T10:10:07;94857.11;;;14.78;37.00
77366;BME280;66430;50.182;11.704;2024-03-22T10:12:30;94855.07;;;14.69;36.79
77366;BME280;66430;50.182;11.704;2024-03-22T10:14:53;94853.39;;;14.48;37.12
77366;BME280;66430;50.182;11.704;2024-03-22T10:17:16;94846.69;;;14.45;36.32
77366;BME280;66430;50.182;11.704;2024-03-22T10:19:42;94846.75;;;15.05;36.37
77366;BME280;66430;50.182;11.704;2024-03-22T10:22:07;94843.33;;;14.65;36.32
77366;BME280;66430;50.182;11.704;2024-03-22T10:24:33;94839.19;;;14.65;35.81
77366;BME280;66430;50.182;11.704;2024-03-22T10:26:58;94832.80;;;14.31;35.78
77366;BME280;66430;50.182;11.704;2024-03-22T10:29:23;94829.70;;;14.17;36.00
77366;BME280;66430;50.182;11.704;2024-03-22T10:31:51;94830.53;;;14.66;35.46
77366;BME280;66430;50.182;11.704;2024-03-22T10:34:15;94825.13;;;14.99;35.33
77366;BME280;66430;50.182;11.704;2024-03-22T10:36:40;94824.38;;;14.99;35.82
77366;BME280;66430;50.182;11.704;2024-03-22T10:39:06;94823.22;;;14.88;35.55
77366;BME280;66430;50.182;11.704;2024-03-22T10:41:31;94818.64;;;15.11;35.33
77366;BME280;66430;50.182;11.704;2024-03-22T10:43:57;94813.39;;;14.73;36.06
77366;BME280;66430;50.182;11.704;2024-03-22T10:46:24;94811.74;;;14.66;35.64
77366;BME280;66430;50.182;11.704;2024-03-22T10:48:47;94808.29;;;13.20;36.15
77366;BME280;66430;50.182;11.704;2024-03-22T10:51:14;94805.05;;;15.13;35.15
77366;BME280;66430;50.182;11.704;2024-03-22T10:53:38;94802.76;;;15.18;34.80
77366;BME280;66430;50.182;11.704;2024-03-22T10:56:05;94796.47;;;14.93;35.90
77366;BME280;66430;50.182;11.704;2024-03-22T10:58:29;94790.24;;;14.92;35.61
77366;BME280;66430;50.182;11.704;2024-03-22T11:00:55;94786.95;;;15.05;35.72
77366;BME280;66430;50.182;11.704;2024-03-22T11:03:20;94779.39;;;15.32;35.87
77366;BME280;66430;50.182;11.704;2024-03-22T11:05:45;94775.83;;;14.91;36.16
77366;BME280;66430;50.182;11.704;2024-03-22T11:08:11;94774.14;;;15.13;35.76
77366;BME280;66430;50.182;11.704;2024-03-22T11:10:36;94770.41;;;14.99;36.57
77366;BME280;66430;50.182;11.704;2024-03-22T11:13:03;94765.37;;;15.63;35.95
77366;BME280;66430;50.182;11.704;2024-03-22T11:15:28;94763.70;;;15.44;36.61
77366;BME280;66430;50.182;11.704;2024-03-22T11:17:53;94750.54;;;15.57;35.83
77366;BME280;66430;50.182;11.704;2024-03-22T11:20:18;94751.07;;;15.86;35.85
77366;BME280;66430;50.182;11.704;2024-03-22T11:22:44;94747.90;;;15.62;35.48
77366;BME280;66430;50.182;11.704;2024-03-22T11:25:10;94747.03;;;15.95;35.90
77366;BME280;66430;50.182;11.704;2024-03-22T11:27:35;94742.27;;;15.96;35.78
77366;BME280;66430;50.182;11.704;2024-03-22T11:30:01;94743.09;;;15.79;35.25
77366;BME280;66430;50.182;11.704;2024-03-22T11:32:27;94738.21;;;15.99;35.34
77366;BME280;66430;50.182;11.704;2024-03-22T11:34:53;94732.46;;;16.00;34.66
77366;BME280;66430;50.182;11.704;2024-03-22T11:37:20;94729.65;;;15.84;35.03
77366;BME280;66430;50.182;11.704;2024-03-22T11:39:43;94728.05;;;15.87;34.65
77366;BME280;66430;50.182;11.704;2024-03-22T11:42:10;94725.15;;;15.93;34.84
77366;BME280;66430;50.182;11.704;2024-03-22T11:44:38;94726.15;;;16.07;33.72
77366;BME280;66430;50.182;11.704;2024-03-22T11:47:00;94722.72;;;16.92;34.14
77366;BME280;66430;50.182;11.704;2024-03-22T11:49:26;94717.20;;;16.62;34.35
77366;BME280;66430;50.182;11.704;2024-03-22T11:51:52;94714.50;;;16.33;34.94
77366;BME280;66430;50.182;11.704;2024-03-22T11:54:19;94711.97;;;16.29;35.62
77366;BME280;66430;50.182;11.704;2024-03-22T11:56:42;94711.78;;;16.63;35.54
77366;BME280;66430;50.182;11.704;2024-03-22T11:59:07;94710.55;;;16.76;35.07
77366;BME280;66430;50.182;11.704;2024-03-22T12:01:33;94709.25;;;16.80;34.63
77366;BME280;66430;50.182;11.704;2024-03-22T12:03:59;94705.96;;;16.72;34.04
77366;BME280;66430;50.182;11.704;2024-03-22T12:06:23;94708.71;;;16.92;34.50
77366;BME280;66430;50.182;11.704;2024-03-22T12:08:49;94702.85;;;16.64;34.66
77366;BME280;66430;50.182;11.704;2024-03-22T12:11:14;94699.11;;;17.23;34.62
77366;BME280;66430;50.182;11.704;2024-03-22T12:13:40;94694.17;;;16.80;34.63
77366;BME280;66430;50.182;11.704;2024-03-22T12:16:06;94692.26;;;16.57;34.12
77366;BME280;66430;50.182;11.704;2024-03-22T12:18:31;94691.70;;;16.53;34.01
77366;BME280;66430;50.182;11.704;2024-03-22T12:20:56;94690.43;;;16.52;33.15
77366;BME280;66430;50.182;11.704;2024-03-22T12:23:22;94689.13;;;16.23;34.75
77366;BME280;66430;50.182;11.704;2024-03-22T12:25:48;94682.68;;;16.70;33.65
77366;BME280;66430;50.182;11.704;2024-03-22T12:28:13;94681.78;;;16.18;34.11
77366;BME280;66430;50.182;11.704;2024-03-22T12:30:38;94679.51;;;16.15;34.10
77366;BME280;66430;50.182;11.704;2024-03-22T12:33:08;94676.70;;;16.01;33.83
77366;BME280;66430;50.182;11.704;2024-03-22T12:35:28;94679.66;;;16.26;34.19
77366;BME280;66430;50.182;11.704;2024-03-22T12:37:54;94677.86;;;16.39;33.92
77366;BME280;66430;50.182;11.704;2024-03-22T12:40:18;94673.67;;;16.22;34.47
77366;BME280;66430;50.182;11.704;2024-03-22T12:42:44;94676.00;;;16.35;33.79
77366;BME280;66430;50.182;11.704;2024-03-22T12:45:10;94672.31;;;16.58;33.94